Time;durP1;ratioP1;P1;durP2;ratioP2;P2;SDS_P1;SDS_P2;PMS_P1;PMS_P2;Temp;Humidity;BMP_temperature;BMP_pressure;BME280_temperature;BME280_humidity;BME280_pressure;Samples;Min_cycle;Max_cycle;Signal;HPM_P1;HPM_P2
2022/10/08 00:01:08;;;;;;;29.80;17.50;;;;;;;7.84;100.00;98533.31;1768351;81;21099;-85
2022/10/08 00:03:37;;;;;;;23.75;14.65;;;;;;;7.82;100.00;98530.06;1730199;82;21022;-85
2022/10/08 00:06:13;;;;;;;24.30;15.78;;;;;;;7.88;100.00;98527.72;1731041;82;21235;-85
2022/10/08 00:08:41;;;;;;;26.27;15.60;;;;;;;7.90;100.00;98522.06;1730810;82;21051;-84
2022/10/08 00:11:11;;;;;;;29.85;16.75;;;;;;;7.91;100.00;98525.86;1731254;82;21126;-84
2022/10/08 00:13:41;;;;;;;29.70;17.42;;;;;;;7.90;100.00;98513.44;1730360;82;21301;-85
2022/10/08 00:16:14;;;;;;;33.40;20.00;;;;;;;7.88;100.00;98510.72;1731061;82;21286;-86
2022/10/08 00:18:40;;;;;;;38.25;21.25;;;;;;;7.84;100.00;98506.87;1751529;81;21979;-84
2022/10/08 00:21:13;;;;;;;33.98;19.82;;;;;;;7.75;100.00;98507.84;1761148;81;21918;-86
2022/10/08 00:23:37;;;;;;;29.70;17.98;;;;;;;7.71;100.00;98504.55;1760882;81;21027;-84
2022/10/08 00:26:05;;;;;;;34.33;18.48;;;;;;;7.67;100.00;98503.41;1761561;81;20864;-85
2022/10/08 00:28:31;;;;;;;28.50;17.57;;;;;;;7.58;100.00;98503.02;1761354;81;21039;-85
2022/10/08 00:30:57;;;;;;;28.07;17.37;;;;;;;7.53;100.00;98495.69;1761565;81;21938;-87
2022/10/08 00:33:22;;;;;;;31.60;17.98;;;;;;;7.49;100.00;98496.41;1761069;81;20865;-85
2022/10/08 00:35:48;;;;;;;34.67;18.12;;;;;;;7.48;100.00;98497.48;1761277;81;21018;-86
2022/10/08 00:38:14;;;;;;;25.65;16.02;;;;;;;7.44;100.00;98493.13;1761061;81;20848;-86
2022/10/08 00:40:44;;;;;;;28.73;16.45;;;;;;;7.44;100.00;98490.43;1761404;81;21062;-86
2022/10/08 00:43:14;;;;;;;33.50;16.50;;;;;;;7.42;100.00;98491.72;1760908;81;21131;-86
2022/10/08 00:45:43;;;;;;;38.85;14.65;;;;;;;7.41;100.00;98492.79;1761359;81;21020;-85
2022/10/08 00:48:16;;;;;;;34.00;15.65;;;;;;;7.40;100.00;98492.51;1761013;81;21405;-84
2022/10/08 00:50:42;;;;;;;30.92;14.68;;;;;;;7.39;100.00;98487.65;1761088;81;21024;-86
2022/10/08 00:53:09;;;;;;;29.10;14.40;;;;;;;7.39;100.00;98488.19;1761000;81;22348;-85
2022/10/08 00:55:37;;;;;;;25.37;14.43;;;;;;;7.32;100.00;98474.88;1760989;81;21211;-86
2022/10/08 00:58:14;;;;;;;23.47;13.65;;;;;;;7.31;100.00;98477.28;1731484;81;21015;-84
2022/10/08 01:00:40;;;;;;;31.07;14.50;;;;;;;7.31;100.00;98478.09;1761283;81;21514;-85
2022/10/08 01:03:06;;;;;;;32.23;13.78;;;;;;;7.28;100.00;98473.21;1761088;81;21468;-84
2022/10/08 01:05:44;;;;;;;39.55;16.40;;;;;;;7.25;100.00;98470.99;1732097;81;21333;-84
2022/10/08 01:08:21;;;;;;;30.45;16.50;;;;;;;7.24;100.00;98471.24;1730879;82;21126;-85
2022/10/08 01:10:53;;;;;;;34.05;15.32;;;;;;;7.21;100.00;98463.13;1730797;82;21059;-85
2022/10/08 01:13:40;;;;;;;36.48;16.48;;;;;;;7.17;100.00;98463.32;1730656;82;21012;-85
2022/10/08 01:16:14;;;;;;;37.20;17.60;;;;;;;7.14;100.00;98463.01;1731128;81;21060;-86
2022/10/08 01:18:55;;;;;;;22.90;14.65;;;;;;;7.11;100.00;98460.28;1749267;81;21064;-84
2022/10/08 01:21:42;;;;;;;18.87;12.47;;;;;;;7.13;100.00;98453.30;1757986;81;21313;-86
2022/10/08 01:27:31;;;;;;;;;;;;;;;7.15;100.00;98451.98;1748246;82;21036;-86
2022/10/08 01:29:58;;;;;;;24.23;11.97;;;;;;;7.15;100.00;98447.13;1768863;81;20274;-84
2022/10/08 01:32:28;;;;;;;24.15;12.70;;;;;;;7.19;100.00;98450.97;1768517;81;21067;-84
2022/10/08 01:35:01;;;;;;;24.92;14.13;;;;;;;7.16;100.00;98450.91;1737965;81;21175;-84
2022/10/08 01:37:31;;;;;;;24.72;15.20;;;;;;;7.15;100.00;98451.16;1737671;81;21091;-84
2022/10/08 01:39:59;;;;;;;24.43;13.25;;;;;;;7.15;100.00;98451.16;1768495;81;21397;-85
2022/10/08 01:42:25;;;;;;;23.62;12.70;;;;;;;7.14;100.00;98453.58;1745847;82;20997;-85
2022/10/08 01:44:57;;;;;;;22.73;13.60;;;;;;;7.09;100.00;98448.91;1768701;81;21028;-85
2022/10/08 01:47:25;;;;;;;24.25;12.05;;;;;;;7.10;100.00;98448.41;1768394;81;21879;-84
2022/10/08 01:49:55;;;;;;;23.65;10.38;;;;;;;7.10;100.00;98445.72;1768322;81;21000;-84
2022/10/08 01:52:37;;;;;;;19.57;11.88;;;;;;;7.08;100.00;98441.89;1768453;81;21182;-86
2022/10/08 01:55:08;;;;;;;20.05;11.57;;;;;;;7.02;100.00;98442.37;1768645;81;21047;-86
2022/10/08 01:57:33;;;;;;;18.70;11.73;;;;;;;7.01;100.00;98434.54;1768258;81;21044;-84
2022/10/08 02:00:07;;;;;;;21.40;12.40;;;;;;;7.03;100.00;98440.48;1713624;81;23307;-86
2022/10/08 02:02:33;;;;;;;26.20;11.03;;;;;;;7.01;100.00;98434.00;1768362;81;21040;-86
2022/10/08 02:04:59;;;;;;;18.05;10.55;;;;;;;7.02;100.00;98433.47;1769374;81;20951;-86
2022/10/08 02:07:36;;;;;;;21.52;11.83;;;;;;;6.99;100.00;98431.25;1779878;80;20923;-86
2022/10/08 02:10:13;;;;;;;21.02;11.78;;;;;;;6.96;100.00;98431.22;1720730;82;21112;-85
2022/10/08 02:12:39;;;;;;;23.30;12.40;;;;;;;6.93;100.00;98430.37;1730750;81;21063;-86
2022/10/08 02:15:16;;;;;;;24.85;12.45;;;;;;;6.91;100.00;98434.36;1730914;82;21563;-84
2022/10/08 02:18:06;;;;;;;22.82;12.55;;;;;;;6.90;100.00;98436.77;1719656;81;21039;-86
2022/10/08 02:20:49;;;;;;;20.62;12.18;;;;;;;6.88;100.00;98430.81;1750605;82;21493;-85
2022/10/08 02:23:26;;;;;;;19.85;12.23;;;;;;;6.86;100.00;98433.76;1770743;81;21055;-86
2022/10/08 02:26:04;;;;;;;19.85;10.78;;;;;;;6.81;100.00;98435.02;1771003;81;21144;-84
2022/10/08 02:28:56;;;;;;;18.17;11.57;;;;;;;6.78;100.00;98433.64;1769968;81;21434;-85
2022/10/08 02:31:39;;;;;;;18.23;11.20;;;;;;;6.72;100.00;98433.26;1771134;81;21055;-85
2022/10/08 02:34:38;;;;;;;20.95;12.23;;;;;;;6.64;100.00;98436.36;1770831;81;21052;-85
2022/10/08 02:37:12;;;;;;;18.12;10.55;;;;;;;6.61;100.00;98435.51;1748308;82;21031;-86
2022/10/08 02:39:42;;;;;;;14.60;10.70;;;;;;;6.56;100.00;98432.72;1770878;81;21878;-85
2022/10/08 02:42:11;;;;;;;16.20;10.53;;;;;;;6.51;100.00;98435.34;1770681;81;21027;-84
2022/10/08 02:44:44;;;;;;;22.07;10.38;;;;;;;6.45;100.00;98431.73;1751546;81;21454;-85
2022/10/08 02:47:14;;;;;;;14.07;10.20;;;;;;;6.44;100.00;98429.29;1772733;80;21536;-84
2022/10/08 02:49:43;;;;;;;21.52;10.40;;;;;;;6.44;100.00;98439.53;1772728;80;21075;-85
2022/10/08 02:52:09;;;;;;;17.00;10.75;;;;;;;6.41;100.00;98436.48;1773034;80;21169;-85
2022/10/08 02:54:38;;;;;;;17.35;9.10;;;;;;;6.38;100.00;98436.98;1772871;80;20940;-86
2022/10/08 02:57:12;;;;;;;12.73;8.90;;;;;;;6.36;100.00;98438.58;1772165;81;21035;-84
2022/10/08 02:59:38;;;;;;;18.80;11.45;;;;;;;6.34;100.00;98435.84;1772609;80;21031;-84
2022/10/08 03:02:04;;;;;;;11.40;8.38;;;;;;;6.34;100.00;98438.53;1772617;80;20955;-84
2022/10/08 03:04:45;;;;;;;14.87;8.80;;;;;;;6.31;100.00;98441.70;1754358;80;22008;-84
2022/10/08 03:07:12;;;;;;;13.70;8.85;;;;;;;6.24;100.00;98444.55;1717588;83;21535;-86
2022/10/08 03:09:41;;;;;;;12.40;8.08;;;;;;;6.19;100.00;98438.53;1730922;82;21099;-85
2022/10/08 03:12:07;;;;;;;15.68;9.60;;;;;;;6.19;100.00;98443.92;1730905;81;21035;-84
2022/10/08 03:14:36;;;;;;;16.62;9.25;;;;;;;6.16;100.00;98443.59;1731048;82;21594;-85
2022/10/08 03:17:02;;;;;;;;;;;;;;;6.12;100.00;98442.42;1733857;81;21249;-85
2022/10/08 03:19:28;;;;;;;15.58;9.83;;;;;;;6.11;100.00;98436.23;1757499;81;20243;-84
2022/10/08 03:21:54;;;;;;;19.48;12.18;;;;;;;6.09;100.00;98441.05;1745781;80;21040;-85
2022/10/08 03:24:21;;;;;;;24.67;11.70;;;;;;;6.06;100.00;98434.78;1745599;81;20993;-85
2022/10/08 03:26:47;;;;;;;18.40;12.35;;;;;;;6.08;100.00;98445.33;1768455;81;21472;-84
2022/10/08 03:29:13;;;;;;;18.57;11.85;;;;;;;6.07;100.00;98445.04;1745466;82;21141;-84
2022/10/08 03:31:38;;;;;;;17.42;11.12;;;;;;;6.06;100.00;98443.38;1768509;81;20921;-85
2022/10/08 03:34:04;;;;;;;15.88;10.32;;;;;;;6.07;100.00;98442.35;1745394;81;20889;-84
2022/10/08 03:36:30;;;;;;;18.98;11.18;;;;;;;6.06;100.00;98442.03;1768628;81;20929;-85
2022/10/08 03:38:56;;;;;;;16.10;10.65;;;;;;;6.05;100.00;98440.41;1768337;81;21054;-85
2022/10/08 03:41:22;;;;;;;14.58;9.38;;;;;;;6.02;100.00;98439.02;1745723;82;21033;-84
2022/10/08 03:43:48;;;;;;;13.38;9.83;;;;;;;6.01;100.00;98439.27;1768551;81;20944;-85
2022/10/08 03:46:14;;;;;;;15.30;10.50;;;;;;;6.00;100.00;98438.45;1768838;81;21040;-85
2022/10/08 03:48:41;;;;;;;18.60;10.43;;;;;;;5.97;100.00;98432.72;1745579;82;20893;-85
2022/10/08 03:51:11;;;;;;;18.07;12.13;;;;;;;5.96;100.00;98443.19;1768571;81;21059;-85
2022/10/08 03:53:38;;;;;;;16.37;10.38;;;;;;;5.93;100.00;98439.11;1767034;81;21737;-84
2022/10/08 03:56:08;;;;;;;14.35;11.22;;;;;;;5.93;100.00;98438.59;1745721;82;21061;-84
2022/10/08 03:58:34;;;;;;;18.12;10.98;;;;;;;5.93;100.00;98433.20;1767868;81;20989;-85
2022/10/08 04:01:05;;;;;;;14.95;10.10;;;;;;;5.96;100.00;98433.78;1768787;81;20928;-85
2022/10/08 04:03:31;;;;;;;16.85;10.98;;;;;;;5.94;100.00;98432.15;1746397;81;20989;-85
2022/10/08 04:05:58;;;;;;;15.45;9.90;;;;;;;5.90;100.00;98435.54;1752457;81;21203;-83
2022/10/08 04:08:24;;;;;;;16.73;10.25;;;;;;;5.89;100.00;98436.04;1772579;80;20991;-84
2022/10/08 04:10:50;;;;;;;19.32;11.22;;;;;;;5.84;100.00;98431.92;1733871;81;21345;-84
2022/10/08 04:13:17;;;;;;;17.48;10.60;;;;;;;5.81;100.00;98431.56;1736087;80;20876;-84
2022/10/08 04:15:43;;;;;;;15.55;9.50;;;;;;;5.80;100.00;98432.63;1747768;81;21062;-84
2022/10/08 04:18:13;;;;;;;18.45;10.55;;;;;;;5.82;100.00;98433.22;1740681;80;21183;-84
2022/10/08 04:20:38;;;;;;;27.10;11.40;;;;;;;5.83;100.00;98439.70;1746358;81;21030;-84
2022/10/08 04:23:06;;;;;;;16.00;10.20;;;;;;;5.80;100.00;98432.09;1755483;79;21463;-85
2022/10/08 04:25:31;;;;;;;20.62;13.30;;;;;;;5.79;100.00;98434.50;1761224;81;21062;-84
2022/10/08 04:27:57;;;;;;;17.70;11.08;;;;;;;5.73;100.00;98426.06;1761249;81;20924;-83
2022/10/08 04:30:23;;;;;;;15.18;10.18;;;;;;;5.71;100.00;98428.15;1761163;81;21147;-84
2022/10/08 04:32:49;;;;;;;24.10;13.65;;;;;;;5.70;100.00;98426.52;1761127;81;21058;-84
2022/10/08 04:35:15;;;;;;;22.67;13.22;;;;;;;5.64;100.00;98430.18;1761234;81;21630;-84
2022/10/08 04:37:41;;;;;;;25.72;14.45;;;;;;;5.62;100.00;98427.70;1760355;81;21013;-84
2022/10/08 04:40:08;;;;;;;21.70;13.55;;;;;;;5.61;100.00;98430.64;1760336;81;20975;-84
2022/10/08 04:42:34;;;;;;;20.20;11.48;;;;;;;5.63;100.00;98434.71;1760090;81;21086;-85
2022/10/08 04:45:00;;;;;;;21.48;12.82;;;;;;;5.64;100.00;98432.87;1760305;81;20998;-84
2022/10/08 04:47:26;;;;;;;18.00;10.85;;;;;;;5.64;100.00;98430.18;1760685;81;20892;-85
2022/10/08 04:49:52;;;;;;;25.45;15.00;;;;;;;5.61;100.00;98428.77;1762126;81;20967;-84
2022/10/08 04:52:19;;;;;;;24.67;15.63;;;;;;;5.60;100.00;98433.04;1761145;81;21617;-84
2022/10/08 04:54:45;;;;;;;22.00;14.98;;;;;;;5.56;100.00;98427.33;1761191;81;21479;-84
2022/10/08 04:57:11;;;;;;;23.80;14.38;;;;;;;5.53;100.00;98427.78;1761185;81;21478;-85
2022/10/08 04:59:37;;;;;;;24.67;12.98;;;;;;;5.53;100.00;98426.44;1760314;81;20908;-85
2022/10/08 05:02:03;;;;;;;21.97;13.90;;;;;;;5.55;100.00;98422.98;1761226;81;20955;-86
2022/10/08 05:04:29;;;;;;;22.22;11.43;;;;;;;5.58;100.00;98427.91;1745023;81;21038;-84
2022/10/08 05:06:55;;;;;;;24.67;12.25;;;;;;;5.57;100.00;98425.45;1731156;82;21132;-85
2022/10/08 05:09:24;;;;;;;22.35;12.75;;;;;;;5.56;100.00;98425.98;1730128;82;21335;-84
2022/10/08 05:11:50;;;;;;;24.05;14.25;;;;;;;5.53;100.00;98426.97;1731185;82;25996;-85
2022/10/08 05:14:16;;;;;;;27.27;15.43;;;;;;;5.53;100.00;98426.44;1730760;82;21027;-85
2022/10/08 05:16:42;;;;;;;22.67;12.18;;;;;;;5.55;100.00;98426.20;1731173;82;20993;-85
2022/10/08 05:19:08;;;;;;;19.75;12.00;;;;;;;5.58;100.00;98427.09;1757244;81;21276;-84
2022/10/08 05:21:34;;;;;;;28.25;13.80;;;;;;;5.61;100.00;98426.60;1761257;81;21038;-84
2022/10/08 05:24:03;;;;;;;18.07;12.43;;;;;;;5.67;100.00;98431.04;1761010;81;21075;-86
2022/10/08 05:26:31;;;;;;;24.77;14.13;;;;;;;5.70;100.00;98425.17;1731772;81;21040;-85
2022/10/08 05:28:57;;;;;;;23.12;14.65;;;;;;;5.75;100.00;98424.47;1761318;81;21075;-85
2022/10/08 05:31:25;;;;;;;21.35;14.03;;;;;;;5.79;100.00;98430.46;1761367;81;21821;-86
2022/10/08 05:33:52;;;;;;;25.23;14.93;;;;;;;5.83;100.00;98434.86;1761133;81;21472;-84
2022/10/08 05:36:23;;;;;;;27.67;15.30;;;;;;;5.83;100.00;98432.98;1761487;81;21055;-85
2022/10/08 05:38:49;;;;;;;24.50;15.32;;;;;;;5.82;100.00;98438.61;1760859;81;21030;-84
2022/10/08 05:41:20;;;;;;;21.12;13.75;;;;;;;5.79;100.00;98437.19;1761278;81;21512;-85
2022/10/08 05:43:46;;;;;;;23.60;13.50;;;;;;;5.81;100.00;98440.98;1760934;81;21087;-86
2022/10/08 05:46:12;;;;;;;20.02;13.48;;;;;;;5.80;100.00;98438.81;1761242;81;21122;-84
2022/10/08 05:48:38;;;;;;;23.65;14.33;;;;;;;5.83;100.00;98441.58;1760984;81;20975;-84
2022/10/08 05:51:06;;;;;;;24.95;14.70;;;;;;;5.83;100.00;98446.42;1761227;81;21169;-86
2022/10/08 05:53:36;;;;;;;25.53;13.93;;;;;;;5.84;100.00;98448.06;1761146;81;21050;-85
2022/10/08 05:56:04;;;;;;;24.85;14.85;;;;;;;5.82;100.00;98439.42;1761375;81;22239;-84
2022/10/08 05:58:33;;;;;;;33.28;17.00;;;;;;;5.85;100.00;98438.94;1760968;81;21665;-86
2022/10/08 06:01:01;;;;;;;27.20;15.50;;;;;;;5.90;100.00;98441.77;1731788;81;21023;-86
2022/10/08 06:03:27;;;;;;;31.60;17.98;;;;;;;5.98;100.00;98443.77;1758039;81;21000;-86
2022/10/08 06:05:53;;;;;;;33.42;18.20;;;;;;;6.05;100.00;98446.60;1730950;82;21107;-85
2022/10/08 06:08:21;;;;;;;35.95;18.20;;;;;;;6.16;100.00;98443.59;1730866;82;21300;-84
2022/10/08 06:10:53;;;;;;;27.58;14.78;;;;;;;6.26;100.00;98442.44;1730938;82;21512;-84
2022/10/08 06:13:20;;;;;;;24.87;14.28;;;;;;;6.36;100.00;98448.53;1730837;82;21020;-84
2022/10/08 06:16:01;;;;;;;21.00;13.58;;;;;;;6.46;100.00;98448.70;1731114;82;21075;-86
2022/10/08 06:18:30;;;;;;;18.25;11.97;;;;;;;6.71;100.00;98446.44;1745465;81;21021;-86
2022/10/08 06:20:56;;;;;;;26.23;14.38;;;;;;;6.95;100.00;98447.64;1745975;82;21179;-85
2022/10/08 06:23:23;;;;;;;19.32;12.43;;;;;;;7.05;100.00;98451.83;1768289;81;21032;-86
2022/10/08 06:25:49;;;;;;;17.90;11.65;;;;;;;7.11;100.00;98444.12;1745755;82;21059;-86
2022/10/08 06:28:15;;;;;;;17.60;11.10;;;;;;;7.20;100.00;98441.28;1738078;81;21004;-85
2022/10/08 06:30:42;;;;;;;21.85;11.60;;;;;;;7.25;100.00;98445.38;1745630;81;21056;-84
2022/10/08 06:33:09;;;;;;;17.00;10.75;;;;;;;7.29;100.00;98443.02;1768359;81;21092;-86
2022/10/08 06:35:35;;;;;;;19.82;11.80;;;;;;;7.35;100.00;98448.78;1738253;81;21456;-86
2022/10/08 06:38:02;;;;;;;15.13;11.33;;;;;;;7.39;100.00;98439.12;1768417;81;21461;-85
2022/10/08 06:40:37;;;;;;;15.60;10.25;;;;;;;7.46;100.00;98444.34;1768427;81;21024;-86
2022/10/08 06:43:06;;;;;;;17.23;10.32;;;;;;;7.52;100.00;98446.86;1767726;81;21071;-84
2022/10/08 06:45:28;;;;;;;17.23;11.93;;;;;;;7.60;100.00;98446.94;1767541;81;21805;-84
2022/10/08 06:47:54;;;;;;;18.30;12.05;;;;;;;7.68;100.00;98447.03;1745321;81;20881;-86
2022/10/08 06:50:20;;;;;;;23.27;13.32;;;;;;;7.79;100.00;98450.98;1768737;81;20909;-86
2022/10/08 06:52:47;;;;;;;20.27;12.98;;;;;;;7.90;100.00;98448.67;1745490;82;20945;-84
2022/10/08 06:55:13;;;;;;;20.23;12.93;;;;;;;8.12;100.00;98449.20;1768304;81;21596;-85
2022/10/08 06:57:39;;;;;;;24.00;11.78;;;;;;;8.33;100.00;98446.17;1745641;82;21207;-85
2022/10/08 07:00:07;;;;;;;27.07;15.80;;;;;;;8.42;100.00;98454.13;1762119;81;20892;-86
2022/10/08 07:02:32;;;;;;;21.05;11.30;;;;;;;8.55;100.00;98457.78;1737305;82;21066;-86
2022/10/08 07:04:58;;;;;;;17.07;10.20;;;;;;;8.96;100.00;98448.66;1749325;81;21510;-86
2022/10/08 07:07:24;;;;;;;15.80;11.25;;;;;;;10.16;100.00;98450.92;1747555;81;20968;-87
2022/10/08 07:09:50;;;;;;;13.68;10.20;;;;;;;11.24;100.00;98447.27;1737657;81;21219;-85
2022/10/08 07:12:16;;;;;;;15.13;10.20;;;;;;;12.24;100.00;98437.47;1750296;80;21619;-85
2022/10/08 07:14:42;;;;;;;14.58;10.55;;;;;;;13.32;100.00;98440.46;1735579;80;20990;-86
2022/10/08 07:17:08;;;;;;;17.50;9.40;;;;;;;14.15;100.00;98437.08;1762055;80;21128;-86
2022/10/08 07:19:34;;;;;;;13.95;9.70;;;;;;;15.23;100.00;98436.55;1738901;81;21136;-85
2022/10/08 07:22:00;;;;;;;18.80;10.98;;;;;;;16.29;100.00;98433.66;1744288;81;21324;-85
2022/10/08 07:24:26;;;;;;;20.15;11.28;;;;;;;17.09;97.82;98431.28;1748835;81;21014;-87
2022/10/08 07:26:52;;;;;;;20.65;11.18;;;;;;;17.18;98.61;98431.61;1726028;81;20876;-86
2022/10/08 07:29:18;;;;;;;12.03;8.83;;;;;;;18.02;93.05;98429.33;1753680;81;21348;-87
2022/10/08 07:31:44;;;;;;;15.63;8.55;;;;;;;17.62;85.16;98427.16;1753874;81;20963;-88
2022/10/08 07:34:11;;;;;;;12.53;7.87;;;;;;;18.16;87.16;98431.96;1753698;81;21143;-87
2022/10/08 07:36:37;;;;;;;13.90;7.30;;;;;;;19.13;87.62;98430.32;1749278;81;21039;-87
2022/10/08 07:39:06;;;;;;;10.08;7.17;;;;;;;20.09;88.68;98422.02;1735690;81;21098;-86
2022/10/08 07:41:32;;;;;;;9.23;6.70;;;;;;;20.79;85.43;98424.55;1731417;80;21100;-86
2022/10/08 07:43:59;;;;;;;17.07;7.25;;;;;;;21.31;83.95;98413.64;1749142;80;20963;-87
2022/10/08 07:46:27;;;;;;;16.67;6.50;;;;;;;21.85;83.31;98416.23;1746306;80;21200;-88
2022/10/08 07:48:55;;;;;;;18.87;7.20;;;;;;;22.49;79.94;98405.30;1730565;82;22145;-88
2022/10/08 07:51:21;;;;;;;14.28;6.33;;;;;;;23.25;76.71;98404.12;1745164;81;21455;-89
2022/10/08 07:53:47;;;;;;;11.50;6.53;;;;;;;23.82;71.44;98404.22;1747101;81;20860;-88
2022/10/08 07:56:15;;;;;;;10.65;6.30;;;;;;;24.24;69.37;98403.05;1761593;81;21054;-87
2022/10/08 07:58:41;;;;;;;10.72;6.55;;;;;;;24.68;67.52;98394.55;1752770;80;21288;-88
2022/10/08 08:01:10;;;;;;;10.15;5.95;;;;;;;25.33;65.46;98396.66;1727358;81;20923;-87
2022/10/08 08:03:36;;;;;;;17.95;6.67;;;;;;;25.65;59.72;98394.46;1748452;80;22573;-87
2022/10/08 08:06:11;;;;;;;12.20;6.78;;;;;;;26.71;62.28;98391.94;1740255;81;20988;-87
2022/10/08 08:08:39;;;;;;;9.58;6.30;;;;;;;26.71;62.28;98391.94;1736865;81;21039;-88
2022/10/08 08:11:06;;;;;;;8.13;4.75;;;;;;;27.35;58.63;98391.92;1733675;81;21264;-87
2022/10/08 08:13:33;;;;;;;14.77;6.03;;;;;;;28.06;55.83;98387.59;1755270;81;21026;-88
2022/10/08 08:16:02;;;;;;;12.65;5.72;;;;;;;27.94;54.95;98381.72;1749418;81;21014;-88
2022/10/08 08:18:29;;;;;;;8.30;5.67;;;;;;;28.11;54.38;98384.42;1749710;80;21063;-87
2022/10/08 08:20:59;;;;;;;11.60;5.57;;;;;;;27.86;49.24;98374.52;1748082;80;21044;-87
2022/10/08 08:23:36;;;;;;;8.83;5.50;;;;;;;28.16;48.53;98364.58;1730789;82;21123;-88
2022/10/08 08:26:04;;;;;;;19.65;10.48;;;;;;;28.85;45.53;98374.31;1731735;81;21043;-88
2022/10/08 08:28:30;;;;;;;12.35;7.03;;;;;;;29.00;46.27;98366.03;1738841;81;21545;-88
2022/10/08 08:31:13;;;;;;;12.28;6.10;;;;;;;29.82;44.14;98373.94;1743012;81;20881;-88
2022/10/08 08:33:39;;;;;;;6.60;4.37;;;;;;;30.75;43.35;98366.83;1730573;81;21479;-90
2022/10/08 08:36:05;;;;;;;14.00;9.40;;;;;;;30.64;40.75;98366.05;1730894;82;21123;-90
2022/10/08 08:38:34;;;;;;;12.30;4.95;;;;;;;30.80;39.29;98372.02;1730112;82;21030;-90
2022/10/08 08:41:24;;;;;;;10.28;4.78;;;;;;;30.15;38.57;98367.16;1701415;82;21031;-87
2022/10/08 08:44:11;;;;;;;8.13;4.75;;;;;;;27.68;39.99;98366.59;1703569;82;21189;-88
2022/10/08 08:46:39;;;;;;;;;;;;;;;26.11;42.98;98362.70;1733693;82;21102;-87
2022/10/08 08:49:20;;;;;;;7.50;4.00;;;;;;;24.62;45.50;98355.27;1730782;82;21792;-87
2022/10/08 08:51:46;;;;;;;8.70;5.42;;;;;;;23.84;47.01;98353.47;1774613;80;21306;-87
2022/10/08 08:54:12;;;;;;;9.25;5.47;;;;;;;22.65;48.55;98361.77;1760981;81;20908;-86
2022/10/08 08:56:38;;;;;;;11.80;4.87;;;;;;;21.82;50.01;98351.55;1761283;81;21007;-87
2022/10/08 08:59:34;;;;;;;7.15;4.87;;;;;;;21.13;52.67;98358.69;1760850;81;20991;-86
2022/10/08 09:02:07;;;;;;;8.08;5.25;;;;;;;20.37;54.97;98356.85;1761124;81;21133;-87
2022/10/08 09:04:43;;;;;;;11.70;5.15;;;;;;;19.73;57.00;98355.95;1743832;81;21082;-87
2022/10/08 09:07:13;;;;;;;9.78;5.80;;;;;;;19.28;58.43;98350.71;1767408;80;21075;-86
2022/10/08 09:09:43;;;;;;;13.88;6.15;;;;;;;18.99;59.79;98347.34;1758353;80;21000;-86
2022/10/08 09:12:22;;;;;;;7.45;4.42;;;;;;;18.79;60.82;98357.84;1751460;81;21440;-86
2022/10/08 09:14:57;;;;;;;7.05;4.37;;;;;;;18.65;60.38;98351.75;1758607;81;21868;-86
2022/10/08 09:17:34;;;;;;;9.38;4.70;;;;;;;18.52;59.24;98355.42;1757193;81;20989;-86
2022/10/08 09:20:00;;;;;;;7.70;4.53;;;;;;;18.43;58.89;98356.80;1751712;81;21155;-86
2022/10/08 09:22:31;;;;;;;9.85;6.15;;;;;;;18.29;59.74;98353.42;1747146;81;20893;-86
2022/10/08 09:25:00;;;;;;;6.15;4.17;;;;;;;18.13;61.98;98350.91;1744093;81;21078;-86
2022/10/08 09:27:46;;;;;;;7.55;3.62;;;;;;;18.08;61.86;98344.20;1747052;81;21368;-86
2022/10/08 09:30:37;;;;;;;10.85;5.37;;;;;;;17.99;63.19;98339.51;1706757;82;21098;-86
2022/10/08 09:33:17;;;;;;;10.72;6.35;;;;;;;18.07;62.29;98346.70;1731002;82;21042;-86
2022/10/08 09:35:50;;;;;;;10.60;4.58;;;;;;;18.11;62.31;98342.17;1730672;82;21003;-86
2022/10/08 09:38:23;;;;;;;6.62;3.55;;;;;;;18.12;62.16;98332.28;1733601;81;21085;-86
2022/10/08 09:41:17;;;;;;;8.90;3.35;;;;;;;18.13;62.39;98327.03;1745822;80;21074;-86
2022/10/08 09:43:44;;;;;;;6.83;3.40;;;;;;;18.15;61.46;98329.45;1761013;81;21031;-86
2022/10/08 09:46:29;;;;;;;5.83;3.33;;;;;;;18.17;62.19;98325.81;1749168;80;21090;-86
2022/10/08 09:48:54;;;;;;;8.30;3.72;;;;;;;18.21;60.98;98320.75;1734939;81;21031;-86
2022/10/08 09:51:20;;;;;;;7.87;3.70;;;;;;;18.24;61.31;98319.29;1747678;80;21405;-86
2022/10/08 09:53:50;;;;;;;8.18;3.90;;;;;;;18.23;61.83;98320.42;1746524;81;21682;-86
2022/10/08 09:56:26;;;;;;;15.53;5.28;;;;;;;18.26;61.83;98312.91;1723473;81;21086;-86
2022/10/08 09:58:57;;;;;;;7.20;4.58;;;;;;;18.28;62.17;98307.33;1747641;81;21470;-86
2022/10/08 10:01:24;;;;;;;8.65;4.50;;;;;;;18.30;62.90;98299.61;1746472;81;21186;-87
2022/10/08 10:03:59;;;;;;;17.92;5.30;;;;;;;18.28;62.52;98305.96;1743295;81;21059;-87
2022/10/08 10:06:37;;;;;;;6.22;4.50;;;;;;;18.28;62.86;98297.73;1757901;81;21081;-87
2022/10/08 10:09:32;;;;;;;14.15;4.40;;;;;;;18.27;63.13;98297.50;1731138;81;21082;-86
2022/10/08 10:12:17;;;;;;;7.05;3.95;;;;;;;18.26;63.11;98298.63;1750283;81;21000;-86
2022/10/08 10:14:47;;;;;;;8.43;4.50;;;;;;;18.32;62.54;98291.05;1760780;81;21050;-86
2022/10/08 10:17:44;;;;;;;8.30;4.30;;;;;;;18.36;63.35;98295.31;1758622;81;21102;-86
2022/10/08 10:20:29;;;;;;;7.42;4.03;;;;;;;18.42;62.77;98294.84;1730412;82;21080;-86
2022/10/08 10:23:20;;;;;;;13.98;5.72;;;;;;;18.44;63.07;98287.08;1740812;81;21075;-87
2022/10/08 10:25:49;;;;;;;6.33;4.35;;;;;;;18.45;63.85;98282.39;1738894;81;21455;-86
2022/10/08 10:28:19;;;;;;;7.10;4.20;;;;;;;18.45;63.58;98278.28;1749336;81;21098;-86
2022/10/08 10:31:05;;;;;;;5.65;4.00;;;;;;;18.51;63.22;98275.05;1736747;81;21054;-86
2022/10/08 10:33:35;;;;;;;14.28;4.47;;;;;;;18.51;62.95;98285.22;1753577;81;21118;-86
2022/10/08 10:36:05;;;;;;;7.97;3.95;;;;;;;18.55;63.18;98276.59;1760033;81;21484;-86
2022/10/08 10:38:34;;;;;;;7.90;4.72;;;;;;;18.63;63.09;98279.05;1761003;81;21098;-86
2022/10/08 10:41:15;;;;;;;9.75;4.60;;;;;;;18.62;62.51;98275.51;1761038;81;21031;-86
2022/10/08 10:44:11;;;;;;;6.97;4.50;;;;;;;18.66;62.51;98268.28;1757139;80;21060;-87
2022/10/08 10:46:55;;;;;;;8.45;4.42;;;;;;;18.78;62.66;98261.53;1792502;80;21255;-86
2022/10/08 10:49:32;;;;;;;8.78;4.80;;;;;;;18.83;62.09;98258.63;1758288;80;21507;-86
2022/10/08 10:52:15;;;;;;;7.72;4.72;;;;;;;18.84;62.01;98256.11;1730560;81;21058;-86
2022/10/08 10:55:14;;;;;;;8.53;5.37;;;;;;;18.91;62.24;98257.56;1730885;82;21043;-87
2022/10/08 10:58:11;;;;;;;6.55;4.65;;;;;;;19.09;61.79;98249.48;1730828;82;21045;-87
2022/10/08 11:01:28;;;;;;;4.50;3.83;;;;;;;19.20;62.18;98249.34;1730825;82;21696;-86
2022/10/08 11:04:03;;;;;;;6.90;4.23;;;;;;;19.31;61.61;98249.23;1739392;81;21078;-86
2022/10/08 11:06:58;;;;;;;4.60;3.55;;;;;;;19.35;61.66;98245.24;1760857;81;21214;-86
2022/10/08 11:09:32;;;;;;;6.72;3.60;;;;;;;19.40;61.34;98245.87;1761133;81;21083;-86
2022/10/08 11:12:35;;;;;;;7.08;4.00;;;;;;;19.44;59.87;98246.00;1759107;80;21050;-87
2022/10/08 11:15:35;;;;;;;5.60;3.83;;;;;;;19.45;60.04;98241.53;1751495;81;21049;-86
2022/10/08 11:18:24;;;;;;;6.15;4.25;;;;;;;19.49;60.52;98243.64;1735124;81;21027;-86
2022/10/08 11:21:12;;;;;;;5.55;4.20;;;;;;;19.53;60.07;98240.45;1730725;82;21059;-87
2022/10/08 11:24:28;;;;;;;5.50;3.85;;;;;;;19.53;59.90;98236.33;1701392;82;21441;-87
2022/10/08 11:27:21;;;;;;;6.17;4.60;;;;;;;19.57;59.92;98231.25;1730903;82;21024;-87
2022/10/08 11:30:05;;;;;;;5.33;3.92;;;;;;;19.61;59.64;98230.00;1730395;82;21453;-86
2022/10/08 11:32:31;;;;;;;5.70;4.42;;;;;;;19.61;59.26;98230.80;1730914;82;21030;-86
2022/10/08 11:35:14;;;;;;;7.53;3.85;;;;;;;19.61;59.02;98231.38;1730246;82;21725;-86
2022/10/08 11:37:57;;;;;;;8.43;4.42;;;;;;;19.64;58.51;98227.38;1730275;82;20993;-87
2022/10/08 11:40:50;;;;;;;6.40;4.20;;;;;;;19.64;57.59;98223.83;1701270;82;21007;-87
2022/10/08 11:43:41;;;;;;;4.92;4.47;;;;;;;19.67;59.01;98212.18;1730076;82;21115;-87
2022/10/08 11:46:30;;;;;;;6.05;4.78;;;;;;;19.72;58.81;98220.21;1730796;82;21533;-87